sensor_id;sensor_type;location;lat;lon;timestamp;temperature;humidity
13458;DHT22;6801;53.018;11.560;2023-02-18T00:01:08;7.20;77.90
13458;DHT22;6801;53.018;11.560;2023-02-18T00:03:37;7.20;77.70
13458;DHT22;6801;53.018;11.560;2023-02-18T00:06:13;7.20;77.70
13458;DHT22;6801;53.018;11.560;2023-02-18T00:08:41;7.20;77.30
13458;DHT22;6801;53.018;11.560;2023-02-18T00:11:09;7.10;77.70
13458;DHT22;6801;53.018;11.560;2023-02-18T00:13:36;7.10;77.00
13458;DHT22;6801;53.018;11.560;2023-02-18T00:16:05;7.10;77.80
13458;DHT22;6801;53.018;11.560;2023-02-18T00:18:32;7.10;78.00
13458;DHT22;6801;53.018;11.560;2023-02-18T00:21:02;7.00;77.00
13458;DHT22;6801;53.018;11.560;2023-02-18T00:23:29;7.00;78.00
13458;DHT22;6801;53.018;11.560;2023-02-18T00:26:00;7.00;78.30
13458;DHT22;6801;53.018;11.560;2023-02-18T00:28:27;7.00;78.40
13458;DHT22;6801;53.018;11.560;2023-02-18T00:30:54;7.10;78.30
13458;DHT22;6801;53.018;11.560;2023-02-18T00:33:22;7.00;77.50
13458;DHT22;6801;53.018;11.560;2023-02-18T00:35:50;7.00;78.20
13458;DHT22;6801;53.018;11.560;2023-02-18T00:38:18;6.90;78.30
13458;DHT22;6801;53.018;11.560;2023-02-18T00:40:46;6.90;78.10
13458;DHT22;6801;53.018;11.560;2023-02-18T00:43:13;7.00;78.60
13458;DHT22;6801;53.018;11.560;2023-02-18T00:45:40;7.00;78.70
13458;DHT22;6801;53.018;11.560;2023-02-18T00:48:07;7.00;78.50
13458;DHT22;6801;53.018;11.560;2023-02-18T00:50:34;7.00;78.60
13458;DHT22;6801;53.018;11.560;2023-02-18T00:53:01;6.90;78.10
13458;DHT22;6801;53.018;11.560;2023-02-18T00:55:31;6.90;78.20
13458;DHT22;6801;53.018;11.560;2023-02-18T00:57:57;6.90;78.60
13458;DHT22;6801;53.018;11.560;2023-02-18T01:00:24;6.90;78.20
13458;DHT22;6801;53.018;11.560;2023-02-18T01:02:51;6.80;78.50
13458;DHT22;6801;53.018;11.560;2023-02-18T01:05:21;6.90;78.90
13458;DHT22;6801;53.018;11.560;2023-02-18T01:07:48;6.90;79.20
13458;DHT22;6801;53.018;11.560;2023-02-18T01:10:15;6.90;79.20
13458;DHT22;6801;53.018;11.560;2023-02-18T01:12:43;6.90;78.80
13458;DHT22;6801;53.018;11.560;2023-02-18T01:15:13;6.80;79.30
13458;DHT22;6801;53.018;11.560;2023-02-18T01:17:40;6.90;79.40
13458;DHT22;6801;53.018;11.560;2023-02-18T01:20:08;6.90;78.30
13458;DHT22;6801;53.018;11.560;2023-02-18T01:22:35;6.80;78.80
13458;DHT22;6801;53.018;11.560;2023-02-18T01:25:07;6.80;78.60
13458;DHT22;6801;53.018;11.560;2023-02-18T01:27:34;6.90;79.00
13458;DHT22;6801;53.018;11.560;2023-02-18T01:30:03;6.80;78.50
13458;DHT22;6801;53.018;11.560;2023-02-18T01:32:31;6.80;78.90
13458;DHT22;6801;53.018;11.560;2023-02-18T01:34:59;6.80;79.20
13458;DHT22;6801;53.018;11.560;2023-02-18T01:37:27;6.70;79.20
13458;DHT22;6801;53.018;11.560;2023-02-18T01:39:54;6.80;79.40
13458;DHT22;6801;53.018;11.560;2023-02-18T01:42:26;6.70;78.50
13458;DHT22;6801;53.018;11.560;2023-02-18T01:48:05;6.70;79.20
13458;DHT22;6801;53.018;11.560;2023-02-18T01:50:36;6.70;79.00
13458;DHT22;6801;53.018;11.560;2023-02-18T01:53:04;6.70;78.90
13458;DHT22;6801;53.018;11.560;2023-02-18T01:55:32;6.60;79.10
13458;DHT22;6801;53.018;11.560;2023-02-18T01:58:00;6.70;79.50
13458;DHT22;6801;53.018;11.560;2023-02-18T02:00:28;6.70;79.50
13458;DHT22;6801;53.018;11.560;2023-02-18T02:02:57;6.70;79.20
13458;DHT22;6801;53.018;11.560;2023-02-18T02:05:29;6.70;79.20
13458;DHT22;6801;53.018;11.560;2023-02-18T02:07:57;6.60;78.90
13458;DHT22;6801;53.018;11.560;2023-02-18T02:10:28;6.70;79.50
13458;DHT22;6801;53.018;11.560;2023-02-18T02:13:08;6.70;79.20
13458;DHT22;6801;53.018;11.560;2023-02-18T02:15:42;6.60;79.30
13458;DHT22;6801;53.018;11.560;2023-02-18T02:18:37;6.60;79.00
13458;DHT22;6801;53.018;11.560;2023-02-18T02:21:34;6.50;78.90
13458;DHT22;6801;53.018;11.560;2023-02-18T02:27:14;6.60;79.70
13458;DHT22;6801;53.018;11.560;2023-02-18T02:30:41;6.60;79.20
13458;DHT22;6801;53.018;11.560;2023-02-18T02:33:39;6.50;79.50
13458;DHT22;6801;53.018;11.560;2023-02-18T02:36:14;6.50;79.80
13458;DHT22;6801;53.018;11.560;2023-02-18T02:38:52;6.50;79.70
13458;DHT22;6801;53.018;11.560;2023-02-18T02:41:32;6.40;79.60
13458;DHT22;6801;53.018;11.560;2023-02-18T02:44:06;6.40;79.90
13458;DHT22;6801;53.018;11.560;2023-02-18T02:46:40;6.50;79.90
13458;DHT22;6801;53.018;11.560;2023-02-18T02:49:18;6.40;79.60
13458;DHT22;6801;53.018;11.560;2023-02-18T02:51:51;6.40;79.80
13458;DHT22;6801;53.018;11.560;2023-02-18T02:54:23;6.40;80.00
13458;DHT22;6801;53.018;11.560;2023-02-18T02:57:04;6.40;80.00
13458;DHT22;6801;53.018;11.560;2023-02-18T02:59:32;6.50;80.00
13458;DHT22;6801;53.018;11.560;2023-02-18T03:02:07;6.40;80.10
13458;DHT22;6801;53.018;11.560;2023-02-18T03:04:51;6.50;79.90
13458;DHT22;6801;53.018;11.560;2023-02-18T03:07:42;6.40;79.70
13458;DHT22;6801;53.018;11.560;2023-02-18T03:10:24;6.40;79.90
13458;DHT22;6801;53.018;11.560;2023-02-18T03:13:02;6.40;80.20
13458;DHT22;6801;53.018;11.560;2023-02-18T03:15:37;6.40;79.80
13458;DHT22;6801;53.018;11.560;2023-02-18T03:18:10;6.40;80.20
13458;DHT22;6801;53.018;11.560;2023-02-18T03:20:46;6.30;80.40
13458;DHT22;6801;53.018;11.560;2023-02-18T03:23:22;6.30;80.30
13458;DHT22;6801;53.018;11.560;2023-02-18T03:25:50;6.40;80.40
13458;DHT22;6801;53.018;11.560;2023-02-18T03:28:19;6.30;80.20
13458;DHT22;6801;53.018;11.560;2023-02-18T03:30:49;6.30;80.20
13458;DHT22;6801;53.018;11.560;2023-02-18T03:33:20;6.30;80.30
13458;DHT22;6801;53.018;11.560;2023-02-18T03:35:51;6.30;80.50
13458;DHT22;6801;53.018;11.560;2023-02-18T03:38:23;6.30;80.40
13458;DHT22;6801;53.018;11.560;2023-02-18T03:40:51;6.30;80.60
13458;DHT22;6801;53.018;11.560;2023-02-18T03:43:19;6.30;80.50
13458;DHT22;6801;53.018;11.560;2023-02-18T03:45:45;6.40;80.30
13458;DHT22;6801;53.018;11.560;2023-02-18T03:48:12;6.30;80.40
13458;DHT22;6801;53.018;11.560;2023-02-18T03:50:39;6.30;80.30
13458;DHT22;6801;53.018;11.560;2023-02-18T03:53:06;6.40;80.50
13458;DHT22;6801;53.018;11.560;2023-02-18T03:55:35;6.40;80.10
13458;DHT22;6801;53.018;11.560;2023-02-18T03:58:01;6.30;79.80
13458;DHT22;6801;53.018;11.560;2023-02-18T04:00:28;6.20;80.30
13458;DHT22;6801;53.018;11.560;2023-02-18T04:02:55;6.30;80.50
13458;DHT22;6801;53.018;11.560;2023-02-18T04:05:22;6.30;80.10
13458;DHT22;6801;53.018;11.560;2023-02-18T04:07:49;6.30;80.10
13458;DHT22;6801;53.018;11.560;2023-02-18T04:10:16;6.30;80.30
13458;DHT22;6801;53.018;11.560;2023-02-18T04:12:45;6.30;80.60
13458;DHT22;6801;53.018;11.560;2023-02-18T04:15:12;6.30;80.60
13458;DHT22;6801;53.018;11.560;2023-02-18T04:17:39;6.30;80.40
13458;DHT22;6801;53.018;11.560;2023-02-18T04:20:07;6.30;80.50
13458;DHT22;6801;53.018;11.560;2023-02-18T04:22:34;6.40;80.40
13458;DHT22;6801;53.018;11.560;2023-02-18T04:25:01;6.30;80.00
13458;DHT22;6801;53.018;11.560;2023-02-18T04:27:28;6.30;80.40
13458;DHT22;6801;53.018;11.560;2023-02-18T04:29:56;6.40;80.30
13458;DHT22;6801;53.018;11.560;2023-02-18T04:32:23;6.30;79.60
13458;DHT22;6801;53.018;11.560;2023-02-18T04:34:50;6.30;79.80
13458;DHT22;6801;53.018;11.560;2023-02-18T04:37:17;6.30;79.80
13458;DHT22;6801;53.018;11.560;2023-02-18T04:39:44;6.30;80.20
13458;DHT22;6801;53.018;11.560;2023-02-18T04:42:10;6.30;80.20
13458;DHT22;6801;53.018;11.560;2023-02-18T04:44:37;6.30;79.40
13458;DHT22;6801;53.018;11.560;2023-02-18T04:47:06;6.30;80.00
13458;DHT22;6801;53.018;11.560;2023-02-18T04:49:33;6.30;79.90
13458;DHT22;6801;53.018;11.560;2023-02-18T04:52:00;6.30;80.20
13458;DHT22;6801;53.018;11.560;2023-02-18T04:54:27;6.30;79.50
13458;DHT22;6801;53.018;11.560;2023-02-18T04:56:54;6.40;79.70
13458;DHT22;6801;53.018;11.560;2023-02-18T04:59:21;6.30;79.90
13458;DHT22;6801;53.018;11.560;2023-02-18T05:01:48;6.40;79.80
13458;DHT22;6801;53.018;11.560;2023-02-18T05:04:17;6.40;79.20
13458;DHT22;6801;53.018;11.560;2023-02-18T05:06:44;6.40;79.80
13458;DHT22;6801;53.018;11.560;2023-02-18T05:09:11;6.30;79.20
13458;DHT22;6801;53.018;11.560;2023-02-18T05:11:38;6.30;79.50
13458;DHT22;6801;53.018;11.560;2023-02-18T05:14:05;6.40;79.30
13458;DHT22;6801;53.018;11.560;2023-02-18T05:16:32;6.40;79.90
13458;DHT22;6801;53.018;11.560;2023-02-18T05:18:59;6.40;79.90
13458;DHT22;6801;53.018;11.560;2023-02-18T05:21:27;6.40;80.00
13458;DHT22;6801;53.018;11.560;2023-02-18T05:23:54;6.40;79.10
13458;DHT22;6801;53.018;11.560;2023-02-18T05:26:21;6.30;78.70
13458;DHT22;6801;53.018;11.560;2023-02-18T05:28:48;6.40;79.70
13458;DHT22;6801;53.018;11.560;2023-02-18T05:31:15;6.40;79.70
13458;DHT22;6801;53.018;11.560;2023-02-18T05:33:42;6.50;79.50
13458;DHT22;6801;53.018;11.560;2023-02-18T05:36:09;6.50;79.30
13458;DHT22;6801;53.018;11.560;2023-02-18T05:38:37;6.50;79.20
13458;DHT22;6801;53.018;11.560;2023-02-18T05:41:04;6.50;79.70
13458;DHT22;6801;53.018;11.560;2023-02-18T05:43:31;6.50;79.60
13458;DHT22;6801;53.018;11.560;2023-02-18T05:46:19;6.50;79.70
13458;DHT22;6801;53.018;11.560;2023-02-18T05:48:45;6.50;79.50
13458;DHT22;6801;53.018;11.560;2023-02-18T05:51:12;6.50;79.80
13458;DHT22;6801;53.018;11.560;2023-02-18T05:53:41;6.40;79.00
13458;DHT22;6801;53.018;11.560;2023-02-18T05:56:08;6.50;79.70
13458;DHT22;6801;53.018;11.560;2023-02-18T05:58:35;6.50;79.10
13458;DHT22;6801;53.018;11.560;2023-02-18T06:01:02;6.40;79.10
13458;DHT22;6801;53.018;11.560;2023-02-18T06:03:29;6.40;79.40
13458;DHT22;6801;53.018;11.560;2023-02-18T06:05:56;6.40;79.70
13458;DHT22;6801;53.018;11.560;2023-02-18T06:08:23;6.50;79.90
13458;DHT22;6801;53.018;11.560;2023-02-18T06:10:51;6.50;80.00
13458;DHT22;6801;53.018;11.560;2023-02-18T06:13:18;6.50;78.80
13458;DHT22;6801;53.018;11.560;2023-02-18T06:15:45;6.50;79.40
13458;DHT22;6801;53.018;11.560;2023-02-18T06:18:12;6.50;79.70
13458;DHT22;6801;53.018;11.560;2023-02-18T06:20:39;6.50;79.90
13458;DHT22;6801;53.018;11.560;2023-02-18T06:23:06;6.60;79.90
13458;DHT22;6801;53.018;11.560;2023-02-18T06:25:33;6.60;79.80
13458;DHT22;6801;53.018;11.560;2023-02-18T06:28:01;6.60;79.60
13458;DHT22;6801;53.018;11.560;2023-02-18T06:30:28;6.60;79.80
13458;DHT22;6801;53.018;11.560;2023-02-18T06:32:55;6.50;79.40
13458;DHT22;6801;53.018;11.560;2023-02-18T06:35:22;6.50;79.90
13458;DHT22;6801;53.018;11.560;2023-02-18T06:37:49;6.50;80.00
13458;DHT22;6801;53.018;11.560;2023-02-18T06:40:16;6.60;80.10
13458;DHT22;6801;53.018;11.560;2023-02-18T06:42:44;6.60;80.10
13458;DHT22;6801;53.018;11.560;2023-02-18T06:45:12;6.60;80.20
13458;DHT22;6801;53.018;11.560;2023-02-18T06:47:39;6.60;80.30
13458;DHT22;6801;53.018;11.560;2023-02-18T06:50:07;6.60;80.30
13458;DHT22;6801;53.018;11.560;2023-02-18T06:52:34;6.60;80.30
13458;DHT22;6801;53.018;11.560;2023-02-18T06:55:03;6.60;80.30
13458;DHT22;6801;53.018;11.560;2023-02-18T06:57:30;6.60;80.50
13458;DHT22;6801;53.018;11.560;2023-02-18T06:59:57;6.70;80.50
13458;DHT22;6801;53.018;11.560;2023-02-18T07:02:25;6.70;80.50
13458;DHT22;6801;53.018;11.560;2023-02-18T07:04:53;6.70;80.50
13458;DHT22;6801;53.018;11.560;2023-02-18T07:07:20;6.70;80.60
13458;DHT22;6801;53.018;11.560;2023-02-18T07:09:47;6.70;80.60
13458;DHT22;6801;53.018;11.560;2023-02-18T07:12:14;6.70;80.60
13458;DHT22;6801;53.018;11.560;2023-02-18T07:14:41;6.70;80.80
13458;DHT22;6801;53.018;11.560;2023-02-18T07:17:08;6.70;80.80
13458;DHT22;6801;53.018;11.560;2023-02-18T07:19:36;6.70;80.90
13458;DHT22;6801;53.018;11.560;2023-02-18T07:22:03;6.70;81.00
13458;DHT22;6801;53.018;11.560;2023-02-18T07:24:30;6.70;81.10
13458;DHT22;6801;53.018;11.560;2023-02-18T07:26:57;6.70;81.10
13458;DHT22;6801;53.018;11.560;2023-02-18T07:29:24;6.70;81.20
13458;DHT22;6801;53.018;11.560;2023-02-18T07:31:51;6.60;81.20
13458;DHT22;6801;53.018;11.560;2023-02-18T07:34:18;6.70;81.30
13458;DHT22;6801;53.018;11.560;2023-02-18T07:36:47;6.70;81.30
13458;DHT22;6801;53.018;11.560;2023-02-18T07:39:14;6.60;81.30
13458;DHT22;6801;53.018;11.560;2023-02-18T07:41:45;6.60;81.40
13458;DHT22;6801;53.018;11.560;2023-02-18T07:44:14;6.60;81.40
13458;DHT22;6801;53.018;11.560;2023-02-18T07:46:41;6.70;81.50
13458;DHT22;6801;53.018;11.560;2023-02-18T07:49:09;6.70;81.50
13458;DHT22;6801;53.018;11.560;2023-02-18T07:51:36;6.70;81.60
13458;DHT22;6801;53.018;11.560;2023-02-18T07:54:06;6.60;81.60
13458;DHT22;6801;53.018;11.560;2023-02-18T07:56:33;6.60;81.70
13458;DHT22;6801;53.018;11.560;2023-02-18T07:59:00;6.70;81.80
13458;DHT22;6801;53.018;11.560;2023-02-18T08:01:27;6.70;81.90
13458;DHT22;6801;53.018;11.560;2023-02-18T08:03:54;6.70;81.90
13458;DHT22;6801;53.018;11.560;2023-02-18T08:06:24;6.70;82.00
13458;DHT22;6801;53.018;11.560;2023-02-18T08:08:51;6.80;82.00
13458;DHT22;6801;53.018;11.560;2023-02-18T08:11:20;6.70;82.00
13458;DHT22;6801;53.018;11.560;2023-02-18T08:13:47;6.80;82.10
13458;DHT22;6801;53.018;11.560;2023-02-18T08:16:14;6.80;82.10
13458;DHT22;6801;53.018;11.560;2023-02-18T08:18:41;6.80;82.10
13458;DHT22;6801;53.018;11.560;2023-02-18T08:21:08;6.80;82.10
13458;DHT22;6801;53.018;11.560;2023-02-18T08:23:35;6.80;82.20
13458;DHT22;6801;53.018;11.560;2023-02-18T08:26:02;6.80;82.20
13458;DHT22;6801;53.018;11.560;2023-02-18T08:28:30;6.80;82.30
13458;DHT22;6801;53.018;11.560;2023-02-18T08:30:57;6.80;82.30
13458;DHT22;6801;53.018;11.560;2023-02-18T08:33:24;6.80;82.40
13458;DHT22;6801;53.018;11.560;2023-02-18T08:35:53;6.90;82.50
13458;DHT22;6801;53.018;11.560;2023-02-18T08:38:22;6.90;82.50
13458;DHT22;6801;53.018;11.560;2023-02-18T08:40:49;6.90;82.60
13458;DHT22;6801;53.018;11.560;2023-02-18T08:43:17;6.90;82.60
13458;DHT22;6801;53.018;11.560;2023-02-18T08:45:45;6.90;82.60
13458;DHT22;6801;53.018;11.560;2023-02-18T08:48:13;6.90;82.60
13458;DHT22;6801;53.018;11.560;2023-02-18T08:50:41;7.00;82.70
13458;DHT22;6801;53.018;11.560;2023-02-18T08:53:08;7.00;82.70
13458;DHT22;6801;53.018;11.560;2023-02-18T08:55:34;7.00;82.70
13458;DHT22;6801;53.018;11.560;2023-02-18T08:58:04;7.00;82.80
13458;DHT22;6801;53.018;11.560;2023-02-18T09:00:31;7.00;82.90
13458;DHT22;6801;53.018;11.560;2023-02-18T09:03:00;7.00;83.00
13458;DHT22;6801;53.018;11.560;2023-02-18T09:05:27;7.00;83.10
13458;DHT22;6801;53.018;11.560;2023-02-18T09:07:54;7.00;83.20
13458;DHT22;6801;53.018;11.560;2023-02-18T09:10:21;7.00;83.20
13458;DHT22;6801;53.018;11.560;2023-02-18T09:12:48;7.00;83.30
13458;DHT22;6801;53.018;11.560;2023-02-18T09:15:16;7.00;83.40
13458;DHT22;6801;53.018;11.560;2023-02-18T09:17:43;7.00;83.40
13458;DHT22;6801;53.018;11.560;2023-02-18T09:20:12;7.00;83.40
13458;DHT22;6801;53.018;11.560;2023-02-18T09:22:39;7.00;83.60
13458;DHT22;6801;53.018;11.560;2023-02-18T09:25:06;7.10;83.70
13458;DHT22;6801;53.018;11.560;2023-02-18T09:27:33;7.10;83.60
13458;DHT22;6801;53.018;11.560;2023-02-18T09:30:00;7.10;83.80
13458;DHT22;6801;53.018;11.560;2023-02-18T09:32:27;7.10;83.80
13458;DHT22;6801;53.018;11.560;2023-02-18T09:34:54;7.10;83.90
13458;DHT22;6801;53.018;11.560;2023-02-18T09:37:23;7.10;83.90
13458;DHT22;6801;53.018;11.560;2023-02-18T09:39:49;7.10;84.00
13458;DHT22;6801;53.018;11.560;2023-02-18T09:42:20;7.10;84.00
13458;DHT22;6801;53.018;11.560;2023-02-18T09:44:52;7.00;84.10
13458;DHT22;6801;53.018;11.560;2023-02-18T09:47:24;7.00;84.00
13458;DHT22;6801;53.018;11.560;2023-02-18T09:49:58;7.10;83.90
13458;DHT22;6801;53.018;11.560;2023-02-18T09:52:30;7.00;83.80
13458;DHT22;6801;53.018;11.560;2023-02-18T09:54:58;7.00;83.70
13458;DHT22;6801;53.018;11.560;2023-02-18T09:57:27;7.00;83.70
13458;DHT22;6801;53.018;11.560;2023-02-18T09:59:59;7.00;83.70
13458;DHT22;6801;53.018;11.560;2023-02-18T10:02:38;7.00;83.70
13458;DHT22;6801;53.018;11.560;2023-02-18T10:05:05;7.00;83.70
13458;DHT22;6801;53.018;11.560;2023-02-18T10:07:39;7.00;83.70
13458;DHT22;6801;53.018;11.560;2023-02-18T10:10:17;7.00;83.70
13458;DHT22;6801;53.018;11.560;2023-02-18T10:12:45;7.10;83.70
13458;DHT22;6801;53.018;11.560;2023-02-18T10:15:20;7.00;83.60
13458;DHT22;6801;53.018;11.560;2023-02-18T10:17:49;7.00;83.70
13458;DHT22;6801;53.018;11.560;2023-02-18T10:20:20;7.10;83.70
13458;DHT22;6801;53.018;11.560;2023-02-18T10:22:52;7.10;83.70
13458;DHT22;6801;53.018;11.560;2023-02-18T10:25:21;7.10;83.70
13458;DHT22;6801;53.018;11.560;2023-02-18T10:27:51;7.10;83.70
13458;DHT22;6801;53.018;11.560;2023-02-18T10:30:24;7.10;83.80
13458;DHT22;6801;53.018;11.560;2023-02-18T10:32:57;7.10;83.70
13458;DHT22;6801;53.018;11.560;2023-02-18T10:35:32;7.10;83.70
13458;DHT22;6801;53.018;11.560;2023-02-18T10:38:08;7.10;83.70
13458;DHT22;6801;53.018;11.560;2023-02-18T10:40:45;7.10;83.70
13458;DHT22;6801;53.018;11.560;2023-02-18T10:43:20;7.10;83.80
13458;DHT22;6801;53.018;11.560;2023-02-18T10:45:56;7.20;83.80
13458;DHT22;6801;53.018;11.560;2023-02-18T10:48:49;7.20;83.80
13458;DHT22;6801;53.018;11.560;2023-02-18T10:51:21;7.10;83.80
13458;DHT22;6801;53.018;11.560;2023-02-18T10:53:52;7.20;83.70
13458;DHT22;6801;53.018;11.560;2023-02-18T10:56:35;7.20;83.80
13458;DHT22;6801;53.018;11.560;2023-02-18T10:59:09;7.20;83.80
13458;DHT22;6801;53.018;11.560;2023-02-18T11:01:37;7.20;83.80
13458;DHT22;6801;53.018;11.560;2023-02-18T11:04:10;7.20;83.90
13458;DHT22;6801;53.018;11.560;2023-02-18T11:06:40;7.20;83.90
13458;DHT22;6801;53.018;11.560;2023-02-18T11:09:28;7.30;84.00
13458;DHT22;6801;53.018;11.560;2023-02-18T11:12:01;7.20;84.00
13458;DHT22;6801;53.018;11.560;2023-02-18T11:14:42;7.30;84.00
13458;DHT22;6801;53.018;11.560;2023-02-18T11:17:17;7.30;84.00
13458;DHT22;6801;53.018;11.560;2023-02-18T11:19:51;7.30;84.00
13458;DHT22;6801;53.018;11.560;2023-02-18T11:22:20;7.30;84.00
13458;DHT22;6801;53.018;11.560;2023-02-18T11:24:53;7.30;84.10
13458;DHT22;6801;53.018;11.560;2023-02-18T11:27:23;7.30;84.20
13458;DHT22;6801;53.018;11.560;2023-02-18T11:29:53;7.40;84.20
13458;DHT22;6801;53.018;11.560;2023-02-18T11:32:25;7.40;84.20
13458;DHT22;6801;53.018;11.560;2023-02-18T11:34:52;7.50;84.30
13458;DHT22;6801;53.018;11.560;2023-02-18T11:37:20;7.50;84.40
13458;DHT22;6801;53.018;11.560;2023-02-18T11:39:52;7.60;84.20
13458;DHT22;6801;53.018;11.560;2023-02-18T11:42:21;7.70;84.10
13458;DHT22;6801;53.018;11.560;2023-02-18T11:44:51;7.70;84.20
13458;DHT22;6801;53.018;11.560;2023-02-18T11:47:22;7.80;84.30
13458;DHT22;6801;53.018;11.560;2023-02-18T11:50:13;7.80;84.40
13458;DHT22;6801;53.018;11.560;2023-02-18T11:52:42;7.90;84.60
13458;DHT22;6801;53.018;11.560;2023-02-18T11:55:16;8.00;85.00
13458;DHT22;6801;53.018;11.560;2023-02-18T11:57:47;8.10;85.00
13458;DHT22;6801;53.018;11.560;2023-02-18T12:00:20;8.10;84.90
13458;DHT22;6801;53.018;11.560;2023-02-18T12:02:49;8.20;85.20
13458;DHT22;6801;53.018;11.560;2023-02-18T12:05:20;8.30;85.10
13458;DHT22;6801;53.018;11.560;2023-02-18T12:07:49;8.40;85.20
13458;DHT22;6801;53.018;11.560;2023-02-18T12:10:24;8.40;85.20
13458;DHT22;6801;53.018;11.560;2023-02-18T12:12:57;8.50;85.20
13458;DHT22;6801;53.018;11.560;2023-02-18T12:15:36;8.70;86.20
13458;DHT22;6801;53.018;11.560;2023-02-18T12:18:37;8.70;85.50
13458;DHT22;6801;53.018;11.560;2023-02-18T12:21:13;8.90;87.10
13458;DHT22;6801;53.018;11.560;2023-02-18T12:23:52;9.00;87.60
13458;DHT22;6801;53.018;11.560;2023-02-18T12:26:26;9.00;88.90
13458;DHT22;6801;53.018;11.560;2023-02-18T12:29:11;9.00;87.80
13458;DHT22;6801;53.018;11.560;2023-02-18T12:31:59;9.10;87.20
13458;DHT22;6801;53.018;11.560;2023-02-18T12:34:46;9.00;87.60
13458;DHT22;6801;53.018;11.560;2023-02-18T12:37:36;9.10;87.70
13458;DHT22;6801;53.018;11.560;2023-02-18T12:40:39;9.20;88.20
13458;DHT22;6801;53.018;11.560;2023-02-18T12:43:18;9.20;88.00
13458;DHT22;6801;53.018;11.560;2023-02-18T12:48:56;9.20;87.30
13458;DHT22;6801;53.018;11.560;2023-02-18T12:51:35;9.30;88.10
13458;DHT22;6801;53.018;11.560;2023-02-18T12:54:14;9.30;88.10
13458;DHT22;6801;53.018;11.560;2023-02-18T12:57:12;9.30;89.50
13458;DHT22;6801;53.018;11.560;2023-02-18T13:02:58;9.40;88.60
13458;DHT22;6801;53.018;11.560;2023-02-18T13:05:32;9.40;87.70
13458;DHT22;6801;53.018;11.560;2023-02-18T13:08:19;9.50;87.60
13458;DHT22;6801;53.018;11.560;2023-02-18T13:11:03;9.50;88.40
13458;DHT22;6801;53.018;11.560;2023-02-18T13:13:37;9.50;88.80
13458;DHT22;6801;53.018;11.560;2023-02-18T13:16:09;9.50;88.50
13458;DHT22;6801;53.018;11.560;2023-02-18T13:18:39;9.50;89.60
13458;DHT22;6801;53.018;11.560;2023-02-18T13:21:09;9.50;88.30
13458;DHT22;6801;53.018;11.560;2023-02-18T13:23:47;9.50;89.10
13458;DHT22;6801;53.018;11.560;2023-02-18T13:26:16;9.50;88.20
13458;DHT22;6801;53.018;11.560;2023-02-18T13:28:48;9.60;88.50
13458;DHT22;6801;53.018;11.560;2023-02-18T13:31:33;9.50;88.10
13458;DHT22;6801;53.018;11.560;2023-02-18T13:34:09;9.60;88.00
13458;DHT22;6801;53.018;11.560;2023-02-18T13:36:49;9.70;87.30
13458;DHT22;6801;53.018;11.560;2023-02-18T13:39:21;9.70;87.80
13458;DHT22;6801;53.018;11.560;2023-02-18T13:41:51;9.70;89.00
13458;DHT22;6801;53.018;11.560;2023-02-18T13:44:39;9.80;88.90
13458;DHT22;6801;53.018;11.560;2023-02-18T13:47:08;9.80;88.20
13458;DHT22;6801;53.018;11.560;2023-02-18T13:49:37;9.80;88.80
13458;DHT22;6801;53.018;11.560;2023-02-18T13:52:05;9.80;89.10
13458;DHT22;6801;53.018;11.560;2023-02-18T13:54:37;9.80;88.80
13458;DHT22;6801;53.018;11.560;2023-02-18T13:57:13;9.80;89.20
13458;DHT22;6801;53.018;11.560;2023-02-18T13:59:44;9.80;89.90
13458;DHT22;6801;53.018;11.560;2023-02-18T14:02:34;9.80;88.80
13458;DHT22;6801;53.018;11.560;2023-02-18T14:05:20;9.80;89.10
13458;DHT22;6801;53.018;11.560;2023-02-18T14:07:50;9.80;88.90
13458;DHT22;6801;53.018;11.560;2023-02-18T14:10:32;9.90;89.30
13458;DHT22;6801;53.018;11.560;2023-02-18T14:13:24;9.80;89.60
13458;DHT22;6801;53.018;11.560;2023-02-18T14:16:03;9.80;89.20
13458;DHT22;6801;53.018;11.560;2023-02-18T14:18:55;9.90;89.40
13458;DHT22;6801;53.018;11.560;2023-02-18T14:21:35;9.90;88.80
13458;DHT22;6801;53.018;11.560;2023-02-18T14:24:05;9.90;89.30
13458;DHT22;6801;53.018;11.560;2023-02-18T14:26:44;9.90;89.90
13458;DHT22;6801;53.018;11.560;2023-02-18T14:29:16;9.80;90.00
13458;DHT22;6801;53.018;11.560;2023-02-18T14:31:51;9.90;89.00
13458;DHT22;6801;53.018;11.560;2023-02-18T14:34:51;9.90;88.80
13458;DHT22;6801;53.018;11.560;2023-02-18T14:37:23;9.80;89.00
13458;DHT22;6801;53.018;11.560;2023-02-18T14:40:02;9.80;88.80
13458;DHT22;6801;53.018;11.560;2023-02-18T14:42:39;9.90;88.40
13458;DHT22;6801;53.018;11.560;2023-02-18T14:45:18;9.90;87.90
13458;DHT22;6801;53.018;11.560;2023-02-18T14:48:00;9.90;88.40
13458;DHT22;6801;53.018;11.560;2023-02-18T14:50:34;9.90;88.30
13458;DHT22;6801;53.018;11.560;2023-02-18T14:53:05;10.00;87.90
13458;DHT22;6801;53.018;11.560;2023-02-18T14:55:37;10.00;87.90
13458;DHT22;6801;53.018;11.560;2023-02-18T14:58:12;9.90;88.80
13458;DHT22;6801;53.018;11.560;2023-02-18T15:00:43;9.90;88.60
13458;DHT22;6801;53.018;11.560;2023-02-18T15:03:12;9.90;88.20
13458;DHT22;6801;53.018;11.560;2023-02-18T15:05:42;9.90;88.30
13458;DHT22;6801;53.018;11.560;2023-02-18T15:08:14;9.90;88.80
13458;DHT22;6801;53.018;11.560;2023-02-18T15:10:43;10.00;88.80
13458;DHT22;6801;53.018;11.560;2023-02-18T15:13:16;10.00;88.40
13458;DHT22;6801;53.018;11.560;2023-02-18T15:15:44;9.90;88.40
13458;DHT22;6801;53.018;11.560;2023-02-18T15:18:22;9.80;88.80
13458;DHT22;6801;53.018;11.560;2023-02-18T15:20:54;9.80;88.90
13458;DHT22;6801;53.018;11.560;2023-02-18T15:23:21;9.80;88.90
13458;DHT22;6801;53.018;11.560;2023-02-18T15:25:51;9.90;87.90
13458;DHT22;6801;53.018;11.560;2023-02-18T15:28:23;9.90;87.80
13458;DHT22;6801;53.018;11.560;2023-02-18T15:30:50;9.90;87.80
13458;DHT22;6801;53.018;11.560;2023-02-18T15:33:19;9.90;87.50
13458;DHT22;6801;53.018;11.560;2023-02-18T15:35:46;9.90;87.30
13458;DHT22;6801;53.018;11.560;2023-02-18T15:38:16;9.90;86.80
13458;DHT22;6801;53.018;11.560;2023-02-18T15:40:47;10.00;86.60
13458;DHT22;6801;53.018;11.560;2023-02-18T15:43:19;9.90;86.40
13458;DHT22;6801;53.018;11.560;2023-02-18T15:45:48;10.00;86.20
13458;DHT22;6801;53.018;11.560;2023-02-18T15:48:23;9.90;87.30
13458;DHT22;6801;53.018;11.560;2023-02-18T15:50:53;9.90;87.00
13458;DHT22;6801;53.018;11.560;2023-02-18T15:53:23;9.90;86.70
13458;DHT22;6801;53.018;11.560;2023-02-18T15:55:52;9.80;86.00
13458;DHT22;6801;53.018;11.560;2023-02-18T15:58:23;9.80;85.80
13458;DHT22;6801;53.018;11.560;2023-02-18T16:00:54;9.70;85.90
13458;DHT22;6801;53.018;11.560;2023-02-18T16:03:24;9.80;85.90
13458;DHT22;6801;53.018;11.560;2023-02-18T16:06:10;9.70;85.80
13458;DHT22;6801;53.018;11.560;2023-02-18T16:08:38;9.70;85.60
13458;DHT22;6801;53.018;11.560;2023-02-18T16:11:07;9.70;85.50
13458;DHT22;6801;53.018;11.560;2023-02-18T16:13:36;9.60;85.50
13458;DHT22;6801;53.018;11.560;2023-02-18T16:16:21;9.60;85.50
13458;DHT22;6801;53.018;11.560;2023-02-18T16:18:49;9.60;85.60
13458;DHT22;6801;53.018;11.560;2023-02-18T16:21:28;9.50;85.50
13458;DHT22;6801;53.018;11.560;2023-02-18T16:23:59;9.50;85.70